Time;durP1;ratioP1;P1;durP2;ratioP2;P2;SDS_P1;SDS_P2;PMS_P1;PMS_P2;Temp;Humidity;BMP_temperature;BMP_pressure;BME280_temperature;BME280_humidity;BME280_pressure;Samples;Min_cycle;Max_cycle;Signal;HPM_P1;HPM_P2
2021/09/06 00:01:51;;;;;;;;;;;;;;;-144.99;91.32;52297.25;5083049;28;19953;-75
2021/09/06 00:04:18;;;;;;;;;;;;;;;-144.99;91.35;52321.72;5081603;28;19979;-75
2021/09/06 00:06:45;;;;;;;;;;;;;;;-144.99;91.04;52289.13;5071524;28;20449;-75
2021/09/06 00:09:11;;;;;;;;;;;;;;;-144.99;90.99;52354.34;5074797;28;19963;-75
2021/09/06 00:11:38;;;;;;;;;;;;;;;-144.99;91.07;52325.81;5078221;28;19958;-74
2021/09/06 00:14:04;;;;;;;;;;;;;;;-144.99;90.96;52354.34;5083632;28;19973;-75
2021/09/06 00:16:31;;;;;;;;;;;;;;;-144.99;90.53;52309.50;5083609;28;19977;-75
2021/09/06 00:18:57;;;;;;;;;;;;;;;-144.99;90.35;52313.56;5082450;28;20345;-73
2021/09/06 00:21:23;;;;;;;;;;;;;;;-144.99;90.37;52303.38;5082443;28;20172;-75
2021/09/06 00:23:51;;;;;;;;;;;;;;;-144.99;90.06;52325.81;5082618;28;19928;-74
2021/09/06 00:26:17;;;;;;;;;;;;;;;-144.99;90.20;52350.25;5083173;28;19957;-74
2021/09/06 00:28:43;;;;;;;;;;;;;;;-144.99;89.89;52329.88;5082363;28;20468;-75
2021/09/06 00:31:12;;;;;;;;;;;;;;;-144.99;89.36;52307.47;5070557;28;20071;-74
2021/09/06 00:33:39;;;;;;;;;;;;;;;-144.99;89.21;52309.50;5082432;28;20458;-75
2021/09/06 00:36:05;;;;;;;;;;;;;;;-144.99;89.19;52295.22;5082288;28;20314;-73
2021/09/06 00:38:31;;;;;;;;;;;;;;;-144.99;89.41;52325.81;5079631;28;19965;-75
2021/09/06 00:40:59;;;;;;;;;;;;;;;-144.99;89.20;52313.56;4730828;28;10000382;-74
2021/09/06 00:43:25;;;;;;;;;;;;;;;-144.99;89.81;52327.84;5077958;28;19967;-74
2021/09/06 00:45:52;;;;;;;;;;;;;;;-144.99;89.89;52338.03;5078589;28;19975;-74
2021/09/06 00:48:18;;;;;;;;;;;;;;;-144.99;90.28;52317.66;5079563;28;19958;-75
2021/09/06 00:50:45;;;;;;;;;;;;;;;-144.99;90.78;52323.75;5080411;28;20431;-74
2021/09/06 00:53:11;;;;;;;;;;;;;;;-144.99;91.17;52329.88;5083423;28;19969;-75
2021/09/06 00:55:38;;;;;;;;;;;;;;;-144.99;91.17;52329.88;5085923;28;19959;-76
2021/09/06 00:58:05;;;;;;;;;;;;;;;-144.99;91.11;52338.03;5086467;28;20051;-75
2021/09/06 01:00:32;;;;;;;;;;;;;;;-144.99;90.76;52325.81;5082187;28;19961;-76
2021/09/06 01:02:58;;;;;;;;;;;;;;;-144.99;90.16;52331.91;5086120;28;19956;-74
2021/09/06 01:05:25;;;;;;;;;;;;;;;-144.99;90.23;52350.25;5077391;28;20334;-74
2021/09/06 01:07:51;;;;;;;;;;;;;;;-144.99;90.32;52303.38;5078610;28;19974;-74
2021/09/06 01:10:17;;;;;;;;;;;;;;;-144.99;90.75;52362.50;5083148;28;19968;-74
2021/09/06 01:12:44;;;;;;;;;;;;;;;-144.99;90.75;52321.72;5083286;28;19966;-76
2021/09/06 01:15:12;;;;;;;;;;;;;;;-144.99;90.54;52329.88;5086268;28;20006;-75
2021/09/06 01:17:39;;;;;;;;;;;;;;;-144.99;90.20;52333.94;5078166;28;19974;-75
2021/09/06 01:20:05;;;;;;;;;;;;;;;-144.99;90.74;52333.94;5085696;28;19973;-75
2021/09/06 01:22:32;;;;;;;;;;;;;;;-144.99;91.37;52317.66;5084861;28;19978;-73
2021/09/06 01:24:58;;;;;;;;;;;;;;;-144.99;91.60;52342.09;5086247;28;20021;-75
2021/09/06 01:27:26;;;;;;;;;;;;;;;-144.99;91.60;52309.50;5085170;28;19984;-75
2021/09/06 01:29:52;;;;;;;;;;;;;;;-144.99;91.56;52348.22;5082227;28;19993;-75
2021/09/06 01:32:19;;;;;;;;;;;;;;;-144.99;91.58;52338.03;5076887;28;19974;-78
2021/09/06 01:34:45;;;;;;;;;;;;;;;-144.99;92.02;52352.28;5084790;28;19991;-77
2021/09/06 01:37:11;;;;;;;;;;;;;;;-144.99;92.06;52309.50;5085375;28;19985;-76
2021/09/06 01:39:38;;;;;;;;;;;;;;;-144.99;92.29;52333.94;5073573;28;19970;-76
2021/09/06 01:42:04;;;;;;;;;;;;;;;-144.99;92.15;52325.81;5084763;28;20342;-78
2021/09/06 01:44:32;;;;;;;;;;;;;;;-144.99;91.87;52338.03;5084149;28;20361;-77
2021/09/06 01:46:58;;;;;;;;;;;;;;;-144.99;91.56;52313.56;5082553;28;20342;-77
2021/09/06 01:49:24;;;;;;;;;;;;;;;-144.99;91.99;52378.78;5084681;28;19995;-77
2021/09/06 01:51:51;;;;;;;;;;;;;;;-144.99;91.93;52309.50;5081986;28;19981;-78
2021/09/06 01:54:17;;;;;;;;;;;;;;;-144.99;91.45;52350.25;5084904;28;19994;-77
2021/09/06 01:56:43;;;;;;;;;;;;;;;-144.99;91.19;52342.09;5085943;28;19979;-76
2021/09/06 01:59:10;;;;;;;;;;;;;;;-144.99;91.52;52297.25;5083740;28;19979;-78
2021/09/06 02:01:37;;;;;;;;;;;;;;;-144.99;91.96;52313.56;5086932;28;19972;-77
2021/09/06 02:04:04;;;;;;;;;;;;;;;-144.99;91.83;52338.03;5088698;28;19987;-78
2021/09/06 02:06:30;;;;;;;;;;;;;;;-144.99;92.19;52352.28;5079550;28;19994;-78
2021/09/06 02:08:56;;;;;;;;;;;;;;;-144.99;92.50;52299.31;5087353;28;19979;-76
2021/09/06 02:11:23;;;;;;;;;;;;;;;-144.99;92.63;52372.69;5087467;28;19984;-79
2021/09/06 02:13:50;;;;;;;;;;;;;;;-144.99;92.62;52305.41;5103715;28;19995;-78
2021/09/06 02:16:16;;;;;;;;;;;;;;;-144.99;92.49;52329.88;5095223;28;19981;-77
2021/09/06 02:18:44;;;;;;;;;;;;;;;-144.99;92.70;52305.41;5088440;28;19978;-77
2021/09/06 02:21:10;;;;;;;;;;;;;;;-144.99;93.19;52354.34;5088133;28;19974;-75
2021/09/06 02:23:36;;;;;;;;;;;;;;;-144.99;93.12;52325.81;5088242;28;20082;-77
2021/09/06 02:26:03;;;;;;;;;;;;;;;-144.99;93.00;52362.50;5075526;28;19994;-77
2021/09/06 02:28:29;;;;;;;;;;;;;;;-144.99;92.68;52333.94;5091598;28;19974;-76
2021/09/06 02:30:55;;;;;;;;;;;;;;;-144.99;92.58;52358.41;5089235;28;19973;-77
2021/09/06 02:33:21;;;;;;;;;;;;;;;-144.99;92.35;52338.03;5094770;28;19990;-75
2021/09/06 02:35:49;;;;;;;;;;;;;;;-144.99;92.60;52333.94;5090847;28;19972;-73
2021/09/06 02:38:15;;;;;;;;;;;;;;;-144.99;92.39;52325.81;5088104;28;20027;-75
2021/09/06 02:40:42;;;;;;;;;;;;;;;-144.99;92.36;52362.50;5086112;28;20053;-75
2021/09/06 02:43:08;;;;;;;;;;;;;;;-144.99;92.38;52340.06;5088033;28;19993;-75
2021/09/06 02:45:34;;;;;;;;;;;;;;;-144.99;92.40;52346.19;5092579;28;20040;-75
2021/09/06 02:48:01;;;;;;;;;;;;;;;-144.99;92.60;52321.72;5090898;28;19984;-75
2021/09/06 02:50:27;;;;;;;;;;;;;;;-144.99;92.61;52340.06;5089381;28;19977;-77
2021/09/06 02:52:55;;;;;;;;;;;;;;;-144.99;92.69;52342.09;5090038;28;19974;-74
2021/09/06 02:55:21;;;;;;;;;;;;;;;-144.99;92.98;52342.09;5086289;28;20568;-75
2021/09/06 02:57:47;;;;;;;;;;;;;;;-144.99;93.24;52303.38;5091224;28;19981;-75
2021/09/06 03:00:14;;;;;;;;;;;;;;;-144.99;93.14;52342.09;5087794;28;20323;-76
2021/09/06 03:02:40;;;;;;;;;;;;;;;-144.99;93.23;52309.50;5089562;28;19975;-75
2021/09/06 03:05:07;;;;;;;;;;;;;;;-144.99;93.14;52329.88;5087763;28;19994;-75
2021/09/06 03:07:33;;;;;;;;;;;;;;;-144.99;93.19;52313.56;5087138;28;19999;-75
2021/09/06 03:10:01;;;;;;;;;;;;;;;-144.99;93.32;52374.72;5087515;28;19986;-74
2021/09/06 03:12:27;;;;;;;;;;;;;;;-144.99;93.49;52325.81;5086742;28;20453;-75
2021/09/06 03:14:54;;;;;;;;;;;;;;;-144.99;93.32;52356.38;5088506;28;19994;-74
2021/09/06 03:17:20;;;;;;;;;;;;;;;-144.99;93.34;52342.09;5088592;28;19976;-74
2021/09/06 03:19:46;;;;;;;;;;;;;;;-144.99;92.97;52352.28;5088266;28;20216;-74
2021/09/06 03:22:12;;;;;;;;;;;;;;;-144.99;92.99;52342.09;5086943;28;20037;-74
2021/09/06 03:24:39;;;;;;;;;;;;;;;-144.99;92.82;52407.31;5088148;28;19985;-74
2021/09/06 03:27:06;;;;;;;;;;;;;;;-144.99;92.66;52342.09;5088130;28;20343;-74
2021/09/06 03:29:33;;;;;;;;;;;;;;;-144.99;93.12;52299.31;5084466;28;19979;-75
2021/09/06 03:32:00;;;;;;;;;;;;;;;-144.99;93.18;52321.72;5086364;28;20464;-74
2021/09/06 03:34:26;;;;;;;;;;;;;;;-144.99;92.78;52325.81;5087110;28;19995;-73
2021/09/06 03:36:52;;;;;;;;;;;;;;;-144.99;92.26;52366.56;5081764;28;19982;-75
2021/09/06 03:39:19;;;;;;;;;;;;;;;-144.99;92.00;52338.03;5085868;28;19974;-75
2021/09/06 03:41:46;;;;;;;;;;;;;;;-144.99;91.79;52391.03;5086560;28;19974;-74
2021/09/06 03:44:13;;;;;;;;;;;;;;;-144.99;91.59;52358.41;5086624;28;19998;-75
2021/09/06 03:46:40;;;;;;;;;;;;;;;-144.99;91.68;52325.81;5079895;28;19993;-75
2021/09/06 03:49:06;;;;;;;;;;;;;;;-144.99;91.47;52313.56;5086764;28;20039;-75
2021/09/06 03:51:32;;;;;;;;;;;;;;;-144.99;91.46;52350.25;5084720;28;19975;-74
2021/09/06 03:53:58;;;;;;;;;;;;;;;-144.99;91.37;52333.94;5088446;28;20001;-75
2021/09/06 03:56:25;;;;;;;;;;;;;;;-144.99;91.51;52378.78;5085146;28;19984;-75
2021/09/06 03:58:51;;;;;;;;;;;;;;;-144.99;91.72;52380.84;5074673;28;20112;-75
2021/09/06 04:01:20;;;;;;;;;;;;;;;-144.99;92.14;52346.19;5087941;28;19974;-76
2021/09/06 04:03:46;;;;;;;;;;;;;;;-144.99;92.19;52354.34;5086263;28;20020;-75
2021/09/06 04:06:12;;;;;;;;;;;;;;;-144.99;92.26;52342.09;5086681;28;19999;-76
2021/09/06 04:08:39;;;;;;;;;;;;;;;-144.99;92.14;52346.19;5079414;28;20407;-77
2021/09/06 04:11:05;;;;;;;;;;;;;;;-144.99;92.16;52317.66;5088387;28;20391;-75
2021/09/06 04:13:31;;;;;;;;;;;;;;;-144.99;92.27;52338.03;5086078;28;20013;-75
2021/09/06 04:15:58;;;;;;;;;;;;;;;-144.99;92.61;52352.28;5087765;28;19978;-76
2021/09/06 04:18:26;;;;;;;;;;;;;;;-144.99;92.23;52329.88;5081974;28;19941;-76
2021/09/06 04:20:52;;;;;;;;;;;;;;;-144.99;92.56;52321.72;5080107;28;19978;-77
2021/09/06 04:23:19;;;;;;;;;;;;;;;-144.99;93.31;52354.34;5086215;28;20036;-75
2021/09/06 04:25:45;;;;;;;;;;;;;;;-144.99;92.96;52325.81;5088319;28;20002;-76
2021/09/06 04:28:11;;;;;;;;;;;;;;;-144.99;93.28;52348.22;5092195;28;19981;-75
2021/09/06 04:30:38;;;;;;;;;;;;;;;-144.99;95.51;52378.78;5082267;28;19986;-76
2021/09/06 04:33:04;;;;;;;;;;;;;;;-144.99;95.73;52321.72;5083820;28;19993;-75
2021/09/06 04:35:32;;;;;;;;;;;;;;;-144.99;95.25;52354.34;5086733;28;20363;-75
2021/09/06 04:37:58;;;;;;;;;;;;;;;-144.99;96.78;52352.28;5087099;28;19982;-75
2021/09/06 04:40:25;;;;;;;;;;;;;;;-144.99;96.26;52346.19;5086856;28;19974;-76
2021/09/06 04:42:52;;;;;;;;;;;;;;;-144.99;95.54;52356.38;5085287;28;20049;-76
2021/09/06 04:45:18;;;;;;;;;;;;;;;-144.99;95.58;52333.94;5087784;28;19988;-76
2021/09/06 04:47:44;;;;;;;;;;;;;;;-144.99;95.96;52356.38;5086191;28;19935;-76
2021/09/06 04:50:11;;;;;;;;;;;;;;;-144.99;95.43;52321.72;5087460;28;20023;-76
2021/09/06 04:52:39;;;;;;;;;;;;;;;-144.99;95.06;52358.41;5076598;28;19978;-75
2021/09/06 04:55:06;;;;;;;;;;;;;;;-144.99;94.82;52352.28;5088064;28;19976;-77
2021/09/06 04:57:32;;;;;;;;;;;;;;;-144.99;94.77;52338.03;4028440;28;10000736;-75
2021/09/06 04:59:59;;;;;;;;;;;;;;;-144.99;94.85;52329.88;5081336;28;19976;-77
2021/09/06 05:02:25;;;;;;;;;;;;;;;-144.99;94.58;52317.66;5082963;28;19983;-73
2021/09/06 05:04:51;;;;;;;;;;;;;;;-144.99;94.08;52354.34;5078485;28;20017;-74
2021/09/06 05:07:18;;;;;;;;;;;;;;;-144.99;93.70;52338.03;5079039;28;20300;-73
2021/09/06 05:09:46;;;;;;;;;;;;;;;-144.99;93.47;52352.28;5072407;28;19949;-74
2021/09/06 05:12:12;;;;;;;;;;;;;;;-144.99;92.92;52340.06;5087884;28;19978;-73
2021/09/06 05:14:38;;;;;;;;;;;;;;;-144.99;92.96;52350.25;5075890;28;20005;-73
2021/09/06 05:17:04;;;;;;;;;;;;;;;-144.99;92.96;52313.56;5091780;22;20010;-74
2021/09/06 05:19:31;;;;;;;;;;;;;;;-144.99;92.84;52350.25;5062102;28;19981;-74
2021/09/06 05:21:57;;;;;;;;;;;;;;;-144.99;92.97;52321.72;5072226;28;19983;-73
2021/09/06 05:24:23;;;;;;;;;;;;;;;-144.99;92.80;52309.50;5068827;28;19983;-76
2021/09/06 05:26:51;;;;;;;;;;;;;;;-144.99;92.74;52331.91;5055792;28;20004;-71
2021/09/06 05:29:17;;;;;;;;;;;;;;;-144.99;92.50;52317.66;5063922;28;19975;-74
2021/09/06 05:31:44;;;;;;;;;;;;;;;-144.99;92.18;52301.34;5063489;28;20001;-75
2021/09/06 05:34:10;;;;;;;;;;;;;;;-144.99;91.89;52342.09;5065868;28;20333;-72
2021/09/06 05:36:36;;;;;;;;;;;;;;;-144.99;91.82;52301.34;5064000;28;20361;-73
2021/09/06 05:39:03;;;;;;;;;;;;;;;-144.99;92.19;52338.03;5065356;28;19985;-72
2021/09/06 05:41:29;;;;;;;;;;;;;;;-144.99;92.65;52360.44;5065268;28;20444;-74
2021/09/06 05:43:57;;;;;;;;;;;;;;;-144.99;92.83;52309.50;5055053;28;19992;-74
2021/09/06 05:46:23;;;;;;;;;;;;;;;-144.99;92.94;52338.03;5051468;28;19995;-73
2021/09/06 05:48:49;;;;;;;;;;;;;;;-144.99;93.19;52350.25;5064556;28;19981;-73
2021/09/06 05:51:16;;;;;;;;;;;;;;;-144.99;93.28;52309.50;5062086;28;19974;-73
2021/09/06 05:53:42;;;;;;;;;;;;;;;-144.99;93.66;52374.72;5058657;28;19985;-75
2021/09/06 05:56:08;;;;;;;;;;;;;;;-144.99;93.65;52313.56;5060349;28;19980;-73
2021/09/06 05:58:35;;;;;;;;;;;;;;;-144.99;93.89;52350.25;5065360;28;19983;-73
2021/09/06 06:01:02;;;;;;;;;;;;;;;-144.99;93.75;52329.88;5066279;28;19984;-73
2021/09/06 06:03:29;;;;;;;;;;;;;;;-144.99;93.33;52311.53;5066004;28;19978;-71
2021/09/06 06:05:55;;;;;;;;;;;;;;;-144.99;93.21;52276.88;5061840;28;19996;-73
2021/09/06 06:08:21;;;;;;;;;;;;;;;-144.99;93.22;52313.56;5060791;28;20358;-72
2021/09/06 06:10:48;;;;;;;;;;;;;;;-144.99;93.26;52329.88;5062749;28;20082;-73
2021/09/06 06:13:14;;;;;;;;;;;;;;;-144.99;93.26;52321.72;5067156;28;20458;-74
2021/09/06 06:15:40;;;;;;;;;;;;;;;-144.99;93.10;52305.41;5065801;28;19984;-73
2021/09/06 06:18:08;;;;;;;;;;;;;;;-144.99;92.84;52301.34;5059034;28;19999;-73
2021/09/06 06:20:34;;;;;;;;;;;;;;;-144.99;92.68;52303.38;5068770;28;19983;-72
2021/09/06 06:23:00;;;;;;;;;;;;;;;-144.99;92.52;52321.72;5067632;28;20401;-74
2021/09/06 06:25:27;;;;;;;;;;;;;;;-144.99;92.49;52309.50;5055661;28;19980;-74
2021/09/06 06:27:55;;;;;;;;;;;;;;;-144.99;92.49;52321.72;5068007;28;20037;-74
2021/09/06 06:30:23;;;;;;;;;;;;;;;-144.99;92.05;52293.19;5059461;28;19980;-74
2021/09/06 06:32:49;;;;;;;;;;;;;;;-144.99;91.85;52305.41;5060663;28;20580;-72
2021/09/06 06:35:17;;;;;;;;;;;;;;;-144.99;91.16;52317.66;5066882;28;19981;-74
2021/09/06 06:37:43;;;;;;;;;;;;;;;-144.99;90.28;52293.19;5065593;28;20498;-74
2021/09/06 06:40:10;;;;;;;;;;;;;;;-144.99;90.13;52313.56;5066304;28;19981;-73
2021/09/06 06:42:36;;;;;;;;;;;;;;;-144.99;90.09;52352.28;5065035;28;19981;-73
2021/09/06 06:45:03;;;;;;;;;;;;;;;-144.99;89.95;52264.66;5067954;28;20158;-76
2021/09/06 06:47:29;;;;;;;;;;;;;;;-144.99;89.85;52285.03;5067933;28;20007;-74
2021/09/06 06:49:55;;;;;;;;;;;;;;;-144.99;89.71;52299.31;5067613;28;19970;-71
2021/09/06 06:52:23;;;;;;;;;;;;;;;-144.99;89.20;52276.88;5066824;28;19961;-74
2021/09/06 06:54:49;;;;;;;;;;;;;;;-144.99;88.93;52297.25;5062513;28;19980;-74
2021/09/06 06:57:18;;;;;;;;;;;;;;;-144.99;88.46;52276.88;5059096;28;19993;-72
2021/09/06 06:59:44;;;;;;;;;;;;;;;-144.99;87.69;52250.38;5061009;28;20057;-72
2021/09/06 07:02:11;;;;;;;;;;;;;;;-144.99;86.99;52264.66;5067662;28;19983;-71
2021/09/06 07:04:37;;;;;;;;;;;;;;;-144.99;85.94;52272.81;5065424;28;19954;-73
2021/09/06 07:07:04;;;;;;;;;;;;;;;-144.99;85.47;52238.16;5060297;28;20005;-73
2021/09/06 07:09:31;;;;;;;;;;;;;;;-144.99;85.29;52280.97;5066689;28;19987;-75
2021/09/06 07:12:00;;;;;;;;;;;;;;;-144.99;85.16;52240.19;5056917;28;20007;-75
2021/09/06 07:14:26;;;;;;;;;;;;;;;-144.99;84.72;52260.56;5066276;28;20082;-76
2021/09/06 07:16:52;;;;;;;;;;;;;;;-144.99;83.91;52244.28;5067124;28;20052;-76
2021/09/06 07:19:19;;;;;;;;;;;;;;;-144.99;83.80;52232.03;5076030;28;19976;-77
2021/09/06 07:21:45;;;;;;;;;;;;;;;-144.99;82.96;52240.19;5066188;28;19999;-73
2021/09/06 07:24:11;;;;;;;;;;;;;;;-144.99;82.00;52234.09;5058937;28;20462;-73
2021/09/06 07:26:39;;;;;;;;;;;;;;;-144.99;81.67;52260.56;5052613;28;20002;-75
2021/09/06 07:29:05;;;;;;;;;;;;;;;-144.99;81.25;52211.66;5056265;28;20181;-74
2021/09/06 07:31:31;;;;;;;;;;;;;;;-144.99;80.72;52172.94;5056573;28;19979;-74
2021/09/06 07:33:58;;;;;;;;;;;;;;;-144.99;79.90;52203.50;5063467;28;20033;-74
2021/09/06 07:36:24;;;;;;;;;;;;;;;-144.99;79.54;52276.88;5063996;28;19998;-72
2021/09/06 07:38:50;;;;;;;;;;;;;;;-144.99;79.34;52248.34;5063049;28;19979;-74
2021/09/06 07:41:17;;;;;;;;;;;;;;;-144.99;78.43;52215.75;5065834;28;19986;-75
2021/09/06 07:43:46;;;;;;;;;;;;;;;-144.99;77.44;52211.66;5065335;28;20075;-73
2021/09/06 07:46:13;;;;;;;;;;;;;;;-144.99;76.39;52232.03;5061582;28;20363;-72
2021/09/06 07:48:39;;;;;;;;;;;;;;;-144.99;76.31;52240.19;5065009;28;20375;-75
2021/09/06 07:51:06;;;;;;;;;;;;;;;-144.99;75.42;52232.03;5064696;28;19989;-74
2021/09/06 07:53:32;;;;;;;;;;;;;;;-144.99;74.09;52193.31;5052545;28;19973;-74
2021/09/06 07:55:58;;;;;;;;;;;;;;;-144.99;73.31;52225.94;5065555;28;20472;-73
2021/09/06 07:58:25;;;;;;;;;;;;;;;-144.99;73.26;52217.78;5057668;28;19994;-73
2021/09/06 08:00:53;;;;;;;;;;;;;;;-144.99;72.29;52179.06;5063606;28;20057;-75
2021/09/06 08:03:19;;;;;;;;;;;;;;;-144.99;69.81;52172.94;5065036;28;20037;-73
2021/09/06 08:05:45;;;;;;;;;;;;;;;-144.99;68.25;52203.50;5054918;28;19974;-72
2021/09/06 08:08:14;;;;;;;;;;;;;;;-144.99;68.13;52234.09;5047554;28;20007;-74
2021/09/06 08:10:40;;;;;;;;;;;;;;;-144.99;67.45;52215.75;5061131;28;20005;-73
2021/09/06 08:13:07;;;;;;;;;;;;;;;-144.99;68.36;52183.13;5065302;28;19936;-73
2021/09/06 08:15:33;;;;;;;;;;;;;;;-144.99;68.64;52223.88;5061808;28;20042;-76
2021/09/06 08:18:01;;;;;;;;;;;;;;;-144.99;67.79;52199.44;5048094;28;20363;-74
2021/09/06 08:20:27;;;;;;;;;;;;;;;-144.99;66.13;52240.19;5060210;28;19982;-74
2021/09/06 08:22:53;;;;;;;;;;;;;;;-144.99;65.16;52183.13;5056181;28;20504;-76
2021/09/06 08:25:20;;;;;;;;;;;;;;;-144.99;64.16;52195.34;5063991;28;19959;-74
2021/09/06 08:27:46;;;;;;;;;;;;;;;-144.99;63.26;52187.19;5064524;28;20228;-74
2021/09/06 08:30:13;;;;;;;;;;;;;;;-144.99;63.31;52219.81;5054333;28;19925;-73
2021/09/06 08:32:39;;;;;;;;;;;;;;;-144.99;63.33;52187.19;5062637;28;19975;-74
2021/09/06 08:35:08;;;;;;;;;;;;;;;-144.99;62.51;52168.84;5063437;28;19992;-76
2021/09/06 08:37:34;;;;;;;;;;;;;;;-144.99;62.30;52211.66;5061540;28;19982;-73
2021/09/06 08:40:01;;;;;;;;;;;;;;;-144.99;61.86;52187.19;5064775;28;19954;-74
2021/09/06 08:42:27;;;;;;;;;;;;;;;-144.99;61.50;52162.75;5064616;28;19958;-74
2021/09/06 08:44:53;;;;;;;;;;;;;;;-144.99;60.06;52168.84;5063733;28;19962;-75
2021/09/06 08:47:20;;;;;;;;;;;;;;;-144.99;59.20;52148.47;5062634;28;19968;-74
2021/09/06 08:49:47;;;;;;;;;;;;;;;-144.99;59.26;52170.91;5059470;28;19948;-74
2021/09/06 08:52:14;;;;;;;;;;;;;;;-144.99;59.67;52191.28;5060139;28;19949;-74
2021/09/06 08:54:41;;;;;;;;;;;;;;;-144.99;59.01;52154.59;5061781;28;19948;-74
2021/09/06 08:57:08;;;;;;;;;;;;;;;-144.99;58.84;52162.75;5053544;28;20017;-74
2021/09/06 08:59:34;;;;;;;;;;;;;;;-144.99;57.80;52126.06;5063735;28;19951;-74
2021/09/06 09:02:00;;;;;;;;;;;;;;;-144.99;57.67;52117.91;5060646;28;19950;-78
2021/09/06 09:04:27;;;;;;;;;;;;;;;-144.99;56.63;52130.13;5064279;28;19932;-76
2021/09/06 09:06:55;;;;;;;;;;;;;;;-144.99;56.12;52105.69;5061705;28;19972;-75
2021/09/06 09:09:27;;;;;;;;;;;;;;;-144.99;55.86;52154.59;5063795;28;19949;-77
2021/09/06 09:12:06;;;;;;;;;;;;;;;-144.99;55.26;52105.69;5064304;28;19961;-75
2021/09/06 09:14:33;;;;;;;;;;;;;;;-144.99;55.41;52146.44;5065307;28;19951;-75
2021/09/06 09:17:00;;;;;;;;;;;;;;;-144.99;54.93;52109.75;5061850;28;20562;-76
2021/09/06 09:19:26;;;;;;;;;;;;;;;-144.99;54.76;52113.84;5050110;28;19928;-75
2021/09/06 09:21:54;;;;;;;;;;;;;;;-144.99;53.73;52128.09;5064545;28;19934;-79
2021/09/06 09:24:21;;;;;;;;;;;;;;;-144.99;53.61;52109.75;5076171;28;20310;-76
2021/09/06 09:26:53;;;;;;;;;;;;;;;-144.99;53.24;52113.84;5065363;28;20007;-74
2021/09/06 09:29:20;;;;;;;;;;;;;;;-144.99;52.08;52126.06;5062004;28;19928;-75
2021/09/06 09:31:47;;;;;;;;;;;;;;;-144.99;52.06;52136.25;5051346;28;19932;-76
2021/09/06 09:34:15;;;;;;;;;;;;;;;-144.99;52.24;52093.44;5063026;28;19950;-77
2021/09/06 09:36:41;;;;;;;;;;;;;;;-144.99;52.26;52150.53;5066395;28;19975;-75
2021/09/06 09:39:08;;;;;;;;;;;;;;;-144.99;52.10;52113.84;5060053;28;19945;-76
2021/09/06 09:41:35;;;;;;;;;;;;;;;-144.99;52.73;52134.22;5060837;28;19942;-75
2021/09/06 09:44:10;;;;;;;;;;;;;;;-144.99;52.78;52130.13;5054514;28;19955;-79
2021/09/06 09:46:36;;;;;;;;;;;;;;;-144.99;52.96;52138.28;5063230;28;19998;-75
2021/09/06 09:49:10;;;;;;;;;;;;;;;-144.99;53.25;52117.91;5066470;28;19924;-76
2021/09/06 09:51:36;;;;;;;;;;;;;;;-144.99;52.67;52103.66;5066782;28;21145;-75
2021/09/06 09:54:03;;;;;;;;;;;;;;;-144.99;51.81;52091.41;5060626;28;19993;-77
2021/09/06 09:56:30;;;;;;;;;;;;;;;-144.99;50.02;52105.69;5060085;28;20441;-76
2021/09/06 09:58:56;;;;;;;;;;;;;;;-144.99;50.19;52105.69;5066303;28;19963;-74
2021/09/06 10:01:24;;;;;;;;;;;;;;;-144.99;49.20;52101.59;5067339;28;19971;-75
2021/09/06 10:03:52;;;;;;;;;;;;;;;-144.99;48.93;52121.97;5067082;28;19989;-76
2021/09/06 10:06:18;;;;;;;;;;;;;;;-144.99;48.96;52117.91;5058922;28;20393;-76
2021/09/06 10:08:45;;;;;;;;;;;;;;;-144.99;49.11;52124.03;5050655;28;19933;-79
2021/09/06 10:11:12;;;;;;;;;;;;;;;-144.99;49.07;52126.06;5067074;28;20418;-76
2021/09/06 10:13:40;;;;;;;;;;;;;;;-144.99;48.51;52097.53;5067417;28;19924;-78
2021/09/06 10:16:06;;;;;;;;;;;;;;;-144.99;49.36;52132.19;5065938;28;19946;-75
2021/09/06 10:18:39;;;;;;;;;;;;;;;-144.99;48.93;52128.09;5065720;28;19945;-75
2021/09/06 10:21:13;;;;;;;;;;;;;;;-144.99;49.50;52130.13;5065031;28;20094;-77
2021/09/06 10:23:42;;;;;;;;;;;;;;;-144.99;49.06;52105.69;5064762;28;19924;-75
2021/09/06 10:26:09;;;;;;;;;;;;;;;-144.99;48.62;52146.44;5066924;28;19924;-76
2021/09/06 10:28:36;;;;;;;;;;;;;;;-144.99;48.04;52138.28;5066317;28;20408;-75
2021/09/06 10:31:02;;;;;;;;;;;;;;;-144.99;48.53;52085.31;5054419;28;20042;-76
2021/09/06 10:33:29;;;;;;;;;;;;;;;-144.99;47.24;52081.22;5064930;28;20392;-75
2021/09/06 10:36:04;;;;;;;;;;;;;;;-144.99;47.16;52085.31;5065742;28;20035;-75
2021/09/06 10:38:36;;;;;;;;;;;;;;;-144.99;46.69;52097.53;5059127;28;20324;-77
2021/09/06 10:41:08;;;;;;;;;;;;;;;-144.99;47.01;52109.75;5059041;28;20055;-75
2021/09/06 10:43:41;;;;;;;;;;;;;;;-144.99;46.90;52050.66;5062459;28;19929;-75
2021/09/06 10:46:08;;;;;;;;;;;;;;;-144.99;45.99;52034.34;5056543;28;19943;-75
2021/09/06 10:48:35;;;;;;;;;;;;;;;-144.99;45.43;52040.47;5063755;28;19928;-76
2021/09/06 10:51:02;;;;;;;;;;;;;;;-144.99;44.95;51983.41;5060718;28;20378;-74
2021/09/06 10:53:30;;;;;;;;;;;;;;;-144.99;44.68;52048.63;5051023;28;20002;-75
2021/09/06 10:55:57;;;;;;;;;;;;;;;-144.99;44.77;52060.84;5059557;28;19924;-76
2021/09/06 10:58:24;;;;;;;;;;;;;;;-144.99;44.10;51979.31;5061465;28;19935;-76
2021/09/06 11:00:52;;;;;;;;;;;;;;;-144.99;43.66;51938.56;5063143;28;19924;-75
2021/09/06 11:03:19;;;;;;;;;;;;;;;-144.99;42.28;51926.34;5065235;28;19929;-75
2021/09/06 11:05:50;;;;;;;;;;;;;;;-144.99;41.45;51944.69;5055740;28;19932;-77
2021/09/06 11:08:17;;;;;;;;;;;;;;;-144.99;41.16;51938.56;5054624;28;19936;-77
2021/09/06 11:10:44;;;;;;;;;;;;;;;-144.99;40.78;51897.81;5062248;28;19928;-76
2021/09/06 11:13:11;;;;;;;;;;;;;;;-144.99;39.92;51873.34;5065109;28;19990;-75
2021/09/06 11:15:37;;;;;;;;;;;;;;;-144.99;39.17;51889.66;5061649;28;19936;-74
2021/09/06 11:18:05;;;;;;;;;;;;;;;-144.99;38.83;51938.56;5088236;22;19935;-74
2021/09/06 11:20:32;;;;;;;;;;;;;;;-144.99;38.69;51926.34;5080436;28;19928;-71
2021/09/06 11:22:59;;;;;;;;;;;;;;;-144.99;38.92;51926.34;5078423;28;19928;-72
2021/09/06 11:25:26;;;;;;;;;;;;;;;-144.99;38.50;51938.56;5086848;28;20405;-74
2021/09/06 11:28:03;;;;;;;;;;;;;;;-144.99;38.05;51873.34;5081962;28;19928;-72
2021/09/06 11:30:29;;;;;;;;;;;;;;;-144.99;38.54;51932.44;5074581;28;20029;-74
2021/09/06 11:32:55;;;;;;;;;;;;;;;-144.99;38.97;51960.97;5081322;28;19974;-74
2021/09/06 11:35:22;;;;;;;;;;;;;;;-144.99;38.52;51903.91;5084247;28;19928;-73
2021/09/06 11:37:49;;;;;;;;;;;;;;;-144.99;38.24;51924.28;5079040;28;19928;-71
2021/09/06 11:40:15;;;;;;;;;;;;;;;-144.99;38.17;51930.41;5082643;28;20061;-73
2021/09/06 11:42:43;;;;;;;;;;;;;;;-144.99;38.55;51926.34;5085141;28;19939;-74
2021/09/06 11:45:17;;;;;;;;;;;;;;;-144.99;38.60;51910.03;5083660;28;20184;-73
2021/09/06 11:47:44;;;;;;;;;;;;;;;-144.99;38.04;51889.66;5079078;28;19925;-73
2021/09/06 11:50:11;;;;;;;;;;;;;;;-144.99;37.59;51889.66;5082633;28;20185;-73
2021/09/06 11:52:38;;;;;;;;;;;;;;;-144.99;37.13;51848.91;5079649;28;19935;-74
2021/09/06 11:55:10;;;;;;;;;;;;;;;-144.99;36.22;51946.72;5080650;28;20288;-73
2021/09/06 11:57:36;;;;;;;;;;;;;;;-144.99;35.86;51824.44;5079564;28;19947;-73
2021/09/06 12:00:05;;;;;;;;;;;;;;;-144.99;35.93;51855.00;5082977;28;19928;-72
2021/09/06 12:02:32;;;;;;;;;;;;;;;-144.99;35.76;51830.56;5081307;28;19974;-73
2021/09/06 12:05:03;;;;;;;;;;;;;;;-144.99;35.26;51828.50;5075154;28;20326;-73
2021/09/06 12:07:29;;;;;;;;;;;;;;;-144.99;34.81;51869.28;5080678;28;20030;-73
2021/09/06 12:09:56;;;;;;;;;;;;;;;-144.99;35.09;51804.06;5079891;28;19928;-74
2021/09/06 12:12:23;;;;;;;;;;;;;;;-144.99;35.34;51885.56;5074874;28;20318;-73
2021/09/06 12:14:51;;;;;;;;;;;;;;;-144.99;35.72;51881.50;5077260;28;19932;-71
2021/09/06 12:17:18;;;;;;;;;;;;;;;-144.99;36.64;51938.56;5078789;28;19932;-73
2021/09/06 12:19:46;;;;;;;;;;;;;;;-144.99;37.43;52028.22;5070683;28;19932;-74
2021/09/06 12:22:14;;;;;;;;;;;;;;;-144.99;38.31;52005.81;5074161;28;19928;-73
2021/09/06 12:24:41;;;;;;;;;;;;;;;-144.99;38.02;52028.22;5079527;28;19924;-72